Aérodrome :
LOGIN :

S'inscrire | Disclaimer

   EN    FR    IT 

 










Légende :    VFR   VFR Marginal   IFR   IFR Intensif   IFR Très Intensif
Visi : 
Plafond : 
>= 8 km
>= 3000ft
5 à 8 km
1000 à 3000 ft
1500m à 5 km
500 à 1000 ft
800 à 1500m
200 à 500 ft
< 800m
< 200 ft
Symboles :   Orages  Brouillard  Fortes neiges  Fortes précipitations  Vent > 20 kt
SIGMETs :   Divers  Orages  Givrage  Turbulence  Onde Orograph.  Cendres Volcan.






- Altitude de l'aérodrome : 122 ft
- Code IATA : TXL


EDDT - Berlin Tegel Int.

DERNIER METAR :
  • 171220Z 04007KT 360V070 9999 FEW007 BKN040 05/04 Q1011 NOSIG

METARs EXPIRÉS :
  • 171150Z 04007KT 350V070 9999 FEW006 BKN037 05/04 Q1012 NOSIG
  • 171120Z 03007KT 360V070 8000 -RA FEW025 BKN037 05/04 Q1012 NOSIG
  • 171050Z 03006KT 360V070 8000 -RA SCT028 BKN047 05/04 Q1013 NOSIG
  • 171020Z 03004KT 320V080 9000 -RA SCT032 04/04 Q1013 NOSIG
  • 170950Z 03003KT 330V100 8000 -RA NSC 04/03 Q1014 NOSIG

TAF TAF EDDT
Valide du 17 à 12h jusqu'au 18 à 12h UTC


171100Z 1712/1812 07008KT 6000 BKN015
TEMPO 1713/1721 2500 -DZ BR BKN004
BECMG 1721/1724 3000 BR
PROB30
TEMPO 1721/1806 0500 FG BKN001
BECMG 1806/1809 16009KT 6000



MET'MAP, la Météo Aéronautique d'un coup d'oeil ! - Copyright ORBIFLY Décembre 2007 - Disclaimer

ORBIFLY MET'MAP TEAM :

Programmation & Développement : Alexandra Zaïnal
Conception & Développement : Baudouin d'Aumeries
Co-Programmation & Développement : Marc-Olivier Méhu
Soutien technique & logistique : Manuel Goepfert

Contact : metmap@orbifly.com




SOURCES & CREDITS :

   NOAA